Theodore, Alabama
Current Conditions -  °F | °C
As of 1:53 PM on Monday 24 Nov 2014 (Local Time) from KBFM Reporting Station
Clear Clear  
Wind Chill: 74°   Ceiling: Unl
Heat Index: 74°   Visibility: 10mi
Dew Point: 63°   Wind: 0mph
Humidity: 68%   Direction: NA
Pressure: 29.84"   Gusts: NA
Location:  30.55°N, 88.18°W
Report Text: KBFM 241953Z 00000KT 10SM CLR 23/17 A2984 RMK AO2 SLP104 T02330172
Loading
Personal Weather Stations






























Interactive Weather Map New forecast layout! Learn more

10-Day Weather Forecast

Advertisements
Track Severe Weather on mobile